Madera, PA (16661)

06:21 AM EDT die 23o September, anno 2014 (GMT -0400)
Tyrone | Change Station
CLOSE
Current Station
Personal Weather Stations
Location: Tyrone, PA
Elevation: 1138 ft
Nearby Weather Stations

Elev 1138 ft 40.68 °N, 78.26 °W | Updated 3 minutes ago

Serena
Serena
41.7 °F
Feels Like 42 °F
N
0.0
Ventus Variabilis Ventus from Zephyrus
Gusts 0.0 mph

Hodie
High -- | Low -- °F
--% Chance of Precip.
Yesterday
High -- | Low -- °F
Precip. -- in
7:02 AM 7:09 PM
Waning Crescent, 1% visible
Pressio 30.33 in
Visibilitas 9.0 milia passuum
Clouds Serena
Frigus Venti 42 °F
Frigus in quo Ros apparet 41 °F
Umor 96%
Rainfall 0.00 in
Snow Depth Not available.
UV 0 out of 12
Pollen 3.70 out of 12
Air Quality Not available.
Flu Activity Not available.
METAR KFIG 230954Z AUTO 00000KT 9SM CLR 03/03 A3030 RMK AO2 SLP270 T00330028

More Conditions Fewer Conditions

Pressio 30.33 in
Visibilitas 9.0 milia passuum
Clouds Serena
Frigus Venti 42 °F
Frigus in quo Ros apparet 41 °F
Umor 96%
Rainfall 0.00 in
Snow Depth Not available.
UV 0 out of 12
Pollen 3.70 out of 12
Air Quality Not available.
Flu Activity Not available.
METAR KFIG 230954Z AUTO 00000KT 9SM CLR 03/03 A3030 RMK AO2 SLP270 T00330028

More Conditions Fewer Conditions

10-Day Weather Forecast

Almanac

Astronomy

Sep. 23, 2014 Rise Set
Actual Time 7:02 AM EDT 7:09 PM EDT
Civil Twilight 6:34 AM EDT 7:36 PM EDT
Nautical Twilight 6:02 AM EDT 8:08 PM EDT
Astronomical Twilight 5:30 AM EDT 8:41 PM EDT
Moon 6:24 AM EDT 6:47 PM EDT
Length Of Visible Light 13h 01m
Length of Day
12h 07m
Tomorrow will be 2m 42s shorter.
Waning Crescent, 1% of the Moon is Illuminated
Hodie
Waning Crescent
Sep 24
New
Oct 1
First Quarter
Oct 8
Full
Oct 15
Last Quarter

Today's Extremes

State Highs State Lows

Community

WunderPhotos

Upload Photos

1,755,645 photos uploaded!

Nearby

Snow Depth

Station Depth Elevation
No new snow has been reported.

Earthquake Activity

City Distance Mag. Time & Date
No recent earthquake activity has been reported nearby.
Minimum magnitude displayed is 2.5.

Coastal Water Temperatures

Locus Calor
No Stations Reporting

Nearby Weather Stations